Time;durP1;ratioP1;P1;durP2;ratioP2;P2;SDS_P1;SDS_P2;PMS_P1;PMS_P2;Temp;Humidity;BMP_temperature;BMP_pressure;BME280_temperature;BME280_humidity;BME280_pressure;Samples;Min_cycle;Max_cycle;Signal;HPM_P1;HPM_P2
2021/09/19 00:01:35;;;;;;;7.07;4.07;;;14.60;99.90;;;;;;5027241;28;20222;-83
2021/09/19 00:04:01;;;;;;;5.33;3.67;;;14.60;99.90;;;;;;5044487;28;20667;-82
2021/09/19 00:06:26;;;;;;;6.47;4.10;;;14.70;99.90;;;;;;5011269;28;20555;-81
2021/09/19 00:08:54;;;;;;;7.27;4.50;;;14.70;99.90;;;;;;5027371;28;21055;-84
2021/09/19 00:11:21;;;;;;;6.00;4.00;;;14.70;99.90;;;;;;5028906;28;20296;-84
2021/09/19 00:13:47;;;;;;;7.77;3.67;;;14.70;99.90;;;;;;5045203;28;20221;-82
2021/09/19 00:16:13;;;;;;;4.83;3.73;;;14.70;99.90;;;;;;5025452;28;20238;-86
2021/09/19 00:18:38;;;;;;;6.27;4.23;;;14.70;99.90;;;;;;5027268;28;20276;-84
2021/09/19 00:21:04;;;;;;;7.93;4.63;;;14.70;99.90;;;;;;5044114;28;20214;-83
2021/09/19 00:23:30;;;;;;;6.23;3.53;;;14.70;99.90;;;;;;5039562;28;20602;-84
2021/09/19 00:25:56;;;;;;;6.63;4.27;;;14.70;99.90;;;;;;5038852;28;20217;-82
2021/09/19 00:28:21;;;;;;;5.57;3.93;;;14.80;99.90;;;;;;5048124;28;20244;-83
2021/09/19 00:30:47;;;;;;;6.63;4.70;;;14.80;99.90;;;;;;5065529;28;20182;-82
2021/09/19 00:33:13;;;;;;;7.00;4.30;;;14.80;99.90;;;;;;5065146;28;20200;-84
2021/09/19 00:35:39;;;;;;;5.67;3.67;;;14.70;99.90;;;;;;5031471;28;20313;-82
2021/09/19 00:38:05;;;;;;;4.30;3.57;;;14.70;99.90;;;;;;5028421;28;20351;-83
2021/09/19 00:40:31;;;;;;;6.03;4.43;;;14.80;99.90;;;;;;5044319;28;20248;-82
2021/09/19 00:42:56;;;;;;;6.17;4.37;;;14.70;99.90;;;;;;5065026;28;20221;-82
2021/09/19 00:45:23;;;;;;;6.60;4.00;;;14.80;99.90;;;;;;5065048;28;20185;-82
2021/09/19 00:47:51;;;;;;;6.10;4.20;;;14.80;99.90;;;;;;5047750;28;20280;-83
2021/09/19 00:50:20;;;;;;;8.50;4.60;;;14.80;99.90;;;;;;5042197;28;20231;-81
2021/09/19 00:52:47;;;;;;;6.33;4.13;;;14.70;99.90;;;;;;5048739;28;20292;-83
2021/09/19 00:55:14;;;;;;;7.87;5.37;;;14.70;99.90;;;;;;5049110;28;21256;-83
2021/09/19 00:57:44;;;;;;;7.03;4.53;;;14.80;99.90;;;;;;5064830;28;20197;-83
2021/09/19 01:00:12;;;;;;;6.93;4.13;;;14.80;99.90;;;;;;5065441;28;20185;-82
2021/09/19 01:02:38;;;;;;;6.33;4.20;;;14.80;99.90;;;;;;5064695;28;20247;-82
2021/09/19 01:05:06;;;;;;;7.40;4.00;;;14.80;99.90;;;;;;5031277;28;20287;-81
2021/09/19 01:07:32;;;;;;;5.80;4.03;;;14.80;99.90;;;;;;5063504;28;20217;-81
2021/09/19 01:09:59;;;;;;;6.37;5.03;;;14.80;99.90;;;;;;5031570;28;20232;-84
2021/09/19 01:12:25;;;;;;;4.60;3.30;;;14.80;99.90;;;;;;5065538;28;20211;-83
2021/09/19 01:14:51;;;;;;;4.37;3.50;;;14.80;99.90;;;;;;5064408;28;20234;-83
2021/09/19 01:17:18;;;;;;;3.87;3.00;;;14.80;99.90;;;;;;5047549;28;20260;-84
2021/09/19 01:19:46;;;;;;;8.60;3.93;;;14.80;99.90;;;;;;5047787;28;20219;-83
2021/09/19 01:22:13;;;;;;;6.53;3.27;;;14.80;99.90;;;;;;5056151;28;20358;-82
2021/09/19 01:24:40;;;;;;;5.70;3.70;;;14.70;99.90;;;;;;5063817;28;20197;-83
2021/09/19 01:27:06;;;;;;;5.97;2.87;;;14.70;99.90;;;;;;5064079;28;20204;-85
2021/09/19 01:29:32;;;;;;;4.60;3.37;;;14.70;99.90;;;;;;5047126;28;20225;-83
2021/09/19 01:31:58;;;;;;;4.50;2.67;;;14.70;99.90;;;;;;5063269;28;20205;-81
2021/09/19 01:34:25;;;;;;;6.60;3.80;;;14.70;99.90;;;;;;5029131;28;20554;-83
2021/09/19 01:36:51;;;;;;;4.73;3.00;;;14.70;99.90;;;;;;5047534;28;20186;-82
2021/09/19 01:39:18;;;;;;;5.70;3.73;;;14.70;99.90;;;;;;5047675;28;20235;-82
2021/09/19 01:41:44;;;;;;;5.80;3.33;;;14.60;99.90;;;;;;5063723;28;20307;-83
2021/09/19 01:44:11;;;;;;;4.77;3.30;;;14.60;99.90;;;;;;5064506;28;20308;-82
2021/09/19 01:46:37;;;;;;;4.23;3.20;;;14.60;99.90;;;;;;5046333;28;20315;-85
2021/09/19 01:49:07;;;;;;;5.30;2.97;;;14.60;99.90;;;;;;5031396;28;20235;-82
2021/09/19 01:51:33;;;;;;;6.40;2.70;;;14.60;99.90;;;;;;5063151;28;20263;-84
2021/09/19 01:53:59;;;;;;;3.17;2.23;;;14.50;99.90;;;;;;5064326;28;20213;-82
2021/09/19 01:56:25;;;;;;;4.77;3.07;;;14.50;99.90;;;;;;5045826;28;21246;-83
2021/09/19 01:58:54;;;;;;;3.57;2.80;;;14.50;99.90;;;;;;5031088;28;20217;-83
2021/09/19 02:01:21;;;;;;;4.63;2.67;;;14.50;99.90;;;;;;5063191;28;20220;-82
2021/09/19 02:03:52;;;;;;;3.17;2.47;;;14.50;99.90;;;;;;5061113;28;20217;-84
2021/09/19 02:06:18;;;;;;;5.63;3.10;;;14.50;99.90;;;;;;5064822;28;20191;-83
2021/09/19 02:08:46;;;;;;;3.83;2.33;;;14.50;99.90;;;;;;5063136;28;20236;-82
2021/09/19 02:11:14;;;;;;;4.03;2.53;;;14.50;99.90;;;;;;5046475;28;20213;-86
2021/09/19 02:13:41;;;;;;;3.30;2.20;;;14.50;99.90;;;;;;5055857;28;20213;-82
2021/09/19 02:16:07;;;;;;;2.97;2.10;;;14.50;99.90;;;;;;5063767;28;20328;-84
2021/09/19 02:18:34;;;;;;;4.00;2.70;;;14.60;99.90;;;;;;5046464;28;21003;-85
2021/09/19 02:21:02;;;;;;;4.23;3.03;;;14.50;99.90;;;;;;5060433;28;20250;-84
2021/09/19 02:23:28;;;;;;;3.77;2.70;;;14.50;99.90;;;;;;5076103;28;20358;-82
2021/09/19 02:25:54;;;;;;;3.63;2.47;;;14.50;99.90;;;;;;5057399;28;20674;-82
2021/09/19 02:28:20;;;;;;;3.00;2.70;;;14.50;99.90;;;;;;5062047;28;20232;-83
2021/09/19 02:30:47;;;;;;;3.23;2.30;;;14.60;99.90;;;;;;5059551;28;20197;-84
2021/09/19 02:33:13;;;;;;;4.47;3.13;;;14.60;99.90;;;;;;5042736;28;20200;-83
2021/09/19 02:35:39;;;;;;;3.47;3.03;;;14.50;99.90;;;;;;5046537;28;20300;-82
2021/09/19 02:38:05;;;;;;;4.13;3.50;;;14.60;99.90;;;;;;5063102;28;20225;-82
2021/09/19 02:40:31;;;;;;;3.87;3.07;;;14.60;99.90;;;;;;5063150;28;20221;-82
2021/09/19 02:42:57;;;;;;;3.67;2.77;;;14.60;99.90;;;;;;5061004;28;20221;-82
2021/09/19 02:45:23;;;;;;;4.20;3.23;;;14.60;99.90;;;;;;5042273;28;20182;-82
2021/09/19 02:47:49;;;;;;;5.27;3.40;;;14.60;99.90;;;;;;5041745;28;20251;-85
2021/09/19 02:50:19;;;;;;;3.77;3.07;;;14.60;99.90;;;;;;5041427;28;20582;-83
2021/09/19 02:52:45;;;;;;;4.13;2.57;;;14.60;99.90;;;;;;5058973;28;20217;-83
2021/09/19 02:55:12;;;;;;;4.80;3.53;;;14.60;99.90;;;;;;5041234;28;20246;-85
2021/09/19 02:57:38;;;;;;;3.57;2.90;;;14.70;99.90;;;;;;5045168;28;20247;-85
2021/09/19 03:00:07;;;;;;;3.57;2.97;;;14.60;99.90;;;;;;5063770;28;20189;-83
2021/09/19 03:02:33;;;;;;;4.20;3.00;;;14.60;99.90;;;;;;5062408;28;20209;-83
2021/09/19 03:04:59;;;;;;;5.07;3.53;;;14.60;99.90;;;;;;5046884;28;20994;-84
2021/09/19 03:07:25;;;;;;;6.63;3.80;;;14.60;99.90;;;;;;5030179;28;20662;-86
2021/09/19 03:09:51;;;;;;;7.40;5.10;;;14.60;99.90;;;;;;5046680;28;20769;-85
2021/09/19 03:12:16;;;;;;;4.87;4.33;;;14.60;99.90;;;;;;5046481;28;20197;-82
2021/09/19 03:14:42;;;;;;;7.20;3.77;;;14.70;99.90;;;;;;5029294;28;20262;-83
2021/09/19 03:17:08;;;;;;;6.33;3.67;;;14.60;99.90;;;;;;5045937;28;20319;-84
2021/09/19 03:19:33;;;;;;;8.57;3.87;;;14.60;99.90;;;;;;5062303;28;20213;-81
2021/09/19 03:21:59;;;;;;;6.23;4.70;;;14.60;99.90;;;;;;5039619;28;20227;-84
2021/09/19 03:24:25;;;;;;;6.03;3.57;;;14.60;99.90;;;;;;5062981;28;20680;-83
2021/09/19 03:26:51;;;;;;;5.63;4.23;;;14.60;99.90;;;;;;5061525;28;20304;-85
2021/09/19 03:29:17;;;;;;;5.43;3.77;;;14.60;99.90;;;;;;5046461;28;20290;-84
2021/09/19 03:31:42;;;;;;;5.67;4.20;;;14.60;99.90;;;;;;5030162;28;20209;-85
2021/09/19 03:34:08;;;;;;;9.47;4.87;;;14.60;99.90;;;;;;5046213;28;20243;-84
2021/09/19 03:36:34;;;;;;;9.43;4.37;;;14.60;99.90;;;;;;5046373;28;20197;-83
2021/09/19 03:39:00;;;;;;;7.20;4.30;;;14.60;99.90;;;;;;5062576;28;20304;-84
2021/09/19 03:41:25;;;;;;;5.53;4.03;;;14.60;99.90;;;;;;5041245;28;20249;-86
2021/09/19 03:43:53;;;;;;;7.47;4.77;;;14.60;99.90;;;;;;5040565;28;20330;-84
2021/09/19 03:46:18;;;;;;;6.40;4.23;;;14.60;99.90;;;;;;5042896;28;20264;-85
2021/09/19 03:48:44;;;;;;;7.57;4.37;;;14.60;99.90;;;;;;5046378;28;20674;-84
2021/09/19 03:51:10;;;;;;;8.20;4.40;;;14.60;99.90;;;;;;5030341;28;20205;-84
2021/09/19 03:53:36;;;;;;;7.43;4.37;;;14.50;99.90;;;;;;5046857;28;20217;-84
2021/09/19 03:56:02;;;;;;;6.73;3.40;;;14.50;99.90;;;;;;5049725;28;20562;-84
2021/09/19 03:58:28;;;;;;;4.83;3.50;;;14.50;99.90;;;;;;5066698;28;20232;-82
2021/09/19 04:00:54;;;;;;;12.17;3.87;;;14.50;99.90;;;;;;5049340;28;20608;-83
2021/09/19 04:03:20;;;;;;;4.50;3.53;;;14.50;99.90;;;;;;5049497;28;20193;-83
2021/09/19 04:05:45;;;;;;;8.07;3.70;;;14.50;99.90;;;;;;5048026;28;20305;-84
2021/09/19 04:08:11;;;;;;;9.63;3.90;;;14.40;99.90;;;;;;5066609;28;20240;-84
2021/09/19 04:10:37;;;;;;;10.90;4.00;;;14.40;99.90;;;;;;5032625;28;20376;-84
2021/09/19 04:13:02;;;;;;;3.77;3.10;;;14.40;99.90;;;;;;5049183;28;20240;-84
2021/09/19 04:15:28;;;;;;;5.33;3.50;;;14.30;99.90;;;;;;5064041;28;20653;-84
2021/09/19 04:17:54;;;;;;;6.00;3.67;;;14.30;99.90;;;;;;5061356;28;20220;-83
2021/09/19 04:20:20;;;;;;;4.90;3.00;;;14.30;99.90;;;;;;5044235;28;20225;-85
2021/09/19 04:22:46;;;;;;;3.60;2.70;;;14.30;99.90;;;;;;5044167;28;20224;-83
2021/09/19 04:25:13;;;;;;;5.57;2.77;;;14.20;99.90;;;;;;5061819;28;20708;-87
2021/09/19 04:27:39;;;;;;;3.97;3.40;;;14.20;99.90;;;;;;5038567;28;20224;-82
2021/09/19 04:30:06;;;;;;;4.90;2.20;;;14.20;99.90;;;;;;5032095;28;20607;-83
2021/09/19 04:32:31;;;;;;;6.10;2.70;;;14.20;99.90;;;;;;5059371;28;20225;-81
2021/09/19 04:34:57;;;;;;;8.70;2.83;;;14.10;99.90;;;;;;5035441;28;20248;-84
2021/09/19 04:37:23;;;;;;;6.10;2.33;;;14.10;99.90;;;;;;5044061;28;21081;-87
2021/09/19 04:39:49;;;;;;;4.80;2.60;;;14.00;99.90;;;;;;5060215;28;20274;-84
2021/09/19 04:42:15;;;;;;;7.20;3.10;;;14.00;99.90;;;;;;5061828;28;20310;-83
2021/09/19 04:44:42;;;;;;;6.73;2.93;;;14.00;99.90;;;;;;5055451;28;20228;-83
2021/09/19 04:47:08;;;;;;;4.87;2.67;;;14.00;99.90;;;;;;5066265;28;20397;-83
2021/09/19 04:49:34;;;;;;;3.37;2.37;;;14.00;99.90;;;;;;5062920;28;20526;-83
2021/09/19 04:52:00;;;;;;;3.53;2.30;;;14.00;99.90;;;;;;5065566;28;20220;-85
2021/09/19 04:54:26;;;;;;;3.50;2.03;;;13.90;99.90;;;;;;5031650;28;20200;-84
2021/09/19 04:56:53;;;;;;;2.83;2.17;;;13.90;99.90;;;;;;5063530;28;20209;-85
2021/09/19 04:59:18;;;;;;;4.13;3.23;;;13.90;99.90;;;;;;5031637;28;20245;-85
2021/09/19 05:01:44;;;;;;;3.37;1.77;;;13.80;99.90;;;;;;5057318;28;20287;-85
2021/09/19 05:04:10;;;;;;;4.17;2.50;;;13.80;99.90;;;;;;5047977;28;20220;-83
2021/09/19 05:06:35;;;;;;;4.27;2.60;;;13.80;99.90;;;;;;5064899;28;20242;-85
2021/09/19 05:09:01;;;;;;;4.57;2.77;;;13.70;99.90;;;;;;5032283;28;20271;-84
2021/09/19 05:11:27;;;;;;;3.77;2.77;;;13.70;99.90;;;;;;5057006;28;20213;-82
2021/09/19 05:13:53;;;;;;;3.47;2.30;;;13.60;99.90;;;;;;5030176;28;20313;-82
2021/09/19 05:16:18;;;;;;;7.63;3.20;;;13.60;99.90;;;;;;5064784;28;20236;-84
2021/09/19 05:18:44;;;;;;;5.23;2.43;;;13.60;99.90;;;;;;5030778;28;20766;-85
2021/09/19 05:21:10;;;;;;;3.87;2.10;;;13.60;99.90;;;;;;5048637;28;20293;-85
2021/09/19 05:23:36;;;;;;;7.43;2.40;;;13.50;99.90;;;;;;5047640;28;20235;-84
2021/09/19 05:26:02;;;;;;;4.37;2.17;;;13.50;99.90;;;;;;5047563;28;20275;-83
2021/09/19 05:28:28;;;;;;;3.97;3.00;;;13.40;99.90;;;;;;5047049;28;20227;-83
2021/09/19 05:30:54;;;;;;;3.00;2.50;;;13.40;99.90;;;;;;5065418;28;20229;-85
2021/09/19 05:33:20;;;;;;;2.70;1.93;;;13.40;99.90;;;;;;5064703;28;20922;-87
2021/09/19 05:35:46;;;;;;;3.23;2.50;;;13.40;99.90;;;;;;5063714;28;20248;-84
2021/09/19 05:38:11;;;;;;;2.37;2.07;;;13.40;99.90;;;;;;5047847;28;20290;-84
2021/09/19 05:40:38;;;;;;;6.50;3.03;;;13.50;99.90;;;;;;5063502;28;21330;-84
2021/09/19 05:43:05;;;;;;;3.43;2.60;;;13.40;99.90;;;;;;5072583;28;20213;-84
2021/09/19 05:45:31;;;;;;;4.10;3.07;;;13.40;99.90;;;;;;5063459;28;20276;-82
2021/09/19 05:47:58;;;;;;;4.47;2.23;;;13.40;99.90;;;;;;5063731;28;20247;-84
2021/09/19 05:50:24;;;;;;;4.97;3.13;;;13.40;99.90;;;;;;5061754;28;20217;-84
2021/09/19 05:52:51;;;;;;;5.23;2.23;;;13.40;99.90;;;;;;5062637;28;20205;-84
2021/09/19 05:55:17;;;;;;;2.90;1.90;;;13.40;99.90;;;;;;5064919;28;20263;-83
2021/09/19 05:57:43;;;;;;;4.40;2.20;;;13.40;99.90;;;;;;5063818;28;20216;-82
2021/09/19 06:00:10;;;;;;;4.43;2.40;;;13.40;99.90;;;;;;5063109;28;20220;-84
2021/09/19 06:02:36;;;;;;;4.07;2.07;;;13.40;99.90;;;;;;5063946;28;20217;-82
2021/09/19 06:05:02;;;;;;;6.77;2.77;;;13.40;99.90;;;;;;5024540;28;20217;-83
2021/09/19 06:07:28;;;;;;;3.00;2.23;;;13.40;99.90;;;;;;5046755;28;20512;-84
2021/09/19 06:09:54;;;;;;;8.80;3.10;;;13.40;99.90;;;;;;5045848;28;20717;-84
2021/09/19 06:12:20;;;;;;;6.20;2.90;;;13.40;99.90;;;;;;5047158;28;20192;-83
2021/09/19 06:14:46;;;;;;;2.53;2.17;;;13.30;99.90;;;;;;5046643;28;20212;-83
2021/09/19 06:17:11;;;;;;;3.87;2.37;;;13.30;99.90;;;;;;5046456;28;20217;-84
2021/09/19 06:19:37;;;;;;;4.60;2.63;;;13.40;99.90;;;;;;5029307;28;20245;-85
2021/09/19 06:22:04;;;;;;;5.13;3.13;;;13.40;99.90;;;;;;5060567;28;20750;-85
2021/09/19 06:24:31;;;;;;;4.10;2.73;;;13.40;99.90;;;;;;5051369;28;20186;-86
2021/09/19 06:27:01;;;;;;;2.87;2.53;;;13.40;99.90;;;;;;5062549;28;20217;-85
2021/09/19 06:29:27;;;;;;;2.57;1.60;;;13.40;99.90;;;;;;5060649;28;20780;-79
2021/09/19 06:31:53;;;;;;;2.20;1.90;;;13.40;99.90;;;;;;5042361;28;20228;-80
2021/09/19 06:34:19;;;;;;;3.77;2.20;;;13.40;99.90;;;;;;5042102;28;20247;-81
2021/09/19 06:36:44;;;;;;;5.43;1.93;;;13.40;99.90;;;;;;5062036;28;20581;-81
2021/09/19 06:39:10;;;;;;;6.00;3.00;;;13.40;99.90;;;;;;5046960;28;20683;-81
2021/09/19 06:41:36;;;;;;;4.13;2.53;;;13.40;99.90;;;;;;5043236;28;20550;-83
2021/09/19 06:44:02;;;;;;;2.97;2.00;;;13.50;99.90;;;;;;5045425;28;20682;-81
2021/09/19 06:46:31;;;;;;;5.17;2.53;;;13.50;99.90;;;;;;5059948;28;20324;-84
2021/09/19 06:48:58;;;;;;;5.63;2.00;;;13.40;99.90;;;;;;5029348;28;20229;-81
2021/09/19 06:51:25;;;;;;;3.03;2.50;;;13.50;99.90;;;;;;5058263;28;20243;-81
2021/09/19 06:53:51;;;;;;;4.70;2.80;;;13.60;99.90;;;;;;5061291;28;20217;-85
2021/09/19 06:56:17;;;;;;;3.07;1.90;;;13.60;99.90;;;;;;5060852;28;20221;-82
2021/09/19 06:58:43;;;;;;;4.73;2.47;;;13.60;99.90;;;;;;5045323;28;20223;-85
2021/09/19 07:01:08;;;;;;;3.30;1.63;;;13.50;99.90;;;;;;5038207;28;20221;-83
2021/09/19 07:03:35;;;;;;;3.10;2.07;;;13.50;99.90;;;;;;5054776;28;20300;-84
2021/09/19 07:06:01;;;;;;;3.13;1.60;;;13.50;99.90;;;;;;5075129;28;20193;-87
2021/09/19 07:08:27;;;;;;;3.60;1.33;;;13.50;99.90;;;;;;5058816;28;20233;-84
2021/09/19 07:10:53;;;;;;;3.87;2.33;;;13.50;99.90;;;;;;5042021;28;20213;-84
2021/09/19 07:13:21;;;;;;;3.90;2.53;;;13.60;99.90;;;;;;5042200;28;20850;-84
2021/09/19 07:15:52;;;;;;;2.53;1.93;;;13.60;99.90;;;;;;5040594;28;20190;-86
2021/09/19 07:18:32;;;;;;;3.13;2.13;;;13.60;99.90;;;;;;5026873;28;20194;-87
2021/09/19 07:21:47;;;;;;;2.50;1.57;;;13.60;99.90;;;;;;5030648;28;20213;-86
2021/09/19 07:27:35;;;;;;;1.73;1.40;;;13.70;99.90;;;;;;5050421;28;20201;-82
2021/09/19 07:30:13;;;;;;;5.00;2.43;;;13.70;99.90;;;;;;5063719;28;20227;-83
2021/09/19 07:32:40;;;;;;;4.50;2.63;;;13.80;99.90;;;;;;5061768;28;20236;-79
2021/09/19 07:35:12;;;;;;;3.70;2.80;;;13.80;99.90;;;;;;5043428;28;20213;-81
2021/09/19 07:37:54;;;;;;;4.73;2.63;;;13.80;99.90;;;;;;5046020;28;20221;-82
2021/09/19 07:41:01;;;;;;;4.50;2.27;;;13.90;99.90;;;;;;5048793;28;20244;-81
2021/09/19 07:43:29;;;;;;;3.70;2.73;;;13.90;99.90;;;;;;5058579;28;20204;-83
2021/09/19 07:45:56;;;;;;;3.27;2.60;;;14.00;99.90;;;;;;5063347;28;20209;-82
2021/09/19 07:48:23;;;;;;;3.00;1.90;;;14.10;99.90;;;;;;5047619;28;20232;-86
2021/09/19 07:50:49;;;;;;;4.20;3.03;;;14.20;99.90;;;;;;5064890;28;20236;-82
2021/09/19 07:53:15;;;;;;;3.33;2.13;;;14.20;99.90;;;;;;5065750;28;20865;-81
2021/09/19 07:55:41;;;;;;;4.17;2.57;;;14.20;99.90;;;;;;5064644;28;20219;-80
2021/09/19 07:58:07;;;;;;;12.60;2.47;;;14.20;99.90;;;;;;5031600;28;20579;-79
2021/09/19 08:00:33;;;;;;;5.53;2.27;;;14.20;99.90;;;;;;5064334;28;21067;-82
2021/09/19 08:02:58;;;;;;;3.03;2.10;;;14.20;99.90;;;;;;5046408;28;20208;-79
2021/09/19 08:05:24;;;;;;;2.40;2.23;;;14.30;99.90;;;;;;5048198;28;20993;-82
2021/09/19 08:07:51;;;;;;;6.37;2.20;;;14.40;99.90;;;;;;5047089;28;20263;-83
2021/09/19 08:10:18;;;;;;;3.33;2.10;;;14.40;99.90;;;;;;5059600;28;20209;-81
2021/09/19 08:12:47;;;;;;;3.67;2.20;;;14.60;99.90;;;;;;5060206;28;20258;-83
2021/09/19 08:15:14;;;;;;;3.57;1.83;;;14.60;99.90;;;;;;5032166;28;20306;-82
2021/09/19 08:17:41;;;;;;;3.07;1.70;;;14.60;99.90;;;;;;5065575;28;20201;-81
2021/09/19 08:20:08;;;;;;;4.67;2.30;;;14.70;99.90;;;;;;5041568;28;20232;-82
2021/09/19 08:22:34;;;;;;;4.00;2.50;;;14.70;99.90;;;;;;5064574;28;20217;-84
2021/09/19 08:25:04;;;;;;;3.00;2.43;;;14.60;99.90;;;;;;5082694;28;20270;-81
2021/09/19 08:27:30;;;;;;;2.77;2.27;;;14.70;99.90;;;;;;5049949;28;20203;-85
2021/09/19 08:29:56;;;;;;;6.63;2.93;;;14.80;99.90;;;;;;5079691;28;20748;-79
2021/09/19 08:32:23;;;;;;;3.37;1.90;;;14.90;99.90;;;;;;5030417;28;20213;-79
2021/09/19 08:34:49;;;;;;;4.40;2.90;;;15.00;99.90;;;;;;5046916;28;20225;-78
2021/09/19 08:37:15;;;;;;;3.90;2.20;;;15.00;99.90;;;;;;5064472;28;20262;-81
2021/09/19 08:39:41;;;;;;;4.37;2.63;;;15.10;99.90;;;;;;5046379;28;20189;-83
2021/09/19 08:42:07;;;;;;;3.60;2.47;;;15.10;99.90;;;;;;5048492;28;20598;-80
2021/09/19 08:44:33;;;;;;;4.07;2.53;;;15.20;99.90;;;;;;5032127;28;20240;-80
2021/09/19 08:46:59;;;;;;;8.73;2.30;;;15.20;99.90;;;;;;5063373;28;23298;-83
2021/09/19 08:49:25;;;;;;;2.67;1.87;;;15.30;99.90;;;;;;5048737;28;20294;-83
2021/09/19 08:51:51;;;;;;;2.20;1.80;;;15.20;99.90;;;;;;5065006;28;20504;-82
2021/09/19 08:54:18;;;;;;;2.60;2.37;;;15.30;99.90;;;;;;5048906;28;20225;-81
2021/09/19 08:56:46;;;;;;;4.57;2.80;;;15.50;99.90;;;;;;5061853;28;20214;-83
2021/09/19 08:59:12;;;;;;;4.43;2.70;;;15.40;99.90;;;;;;5062143;28;20232;-83
2021/09/19 09:01:58;;;;;;;5.10;2.67;;;15.40;99.90;;;;;;5041527;28;20232;-81
2021/09/19 09:04:24;;;;;;;3.23;2.20;;;15.60;99.90;;;;;;5054282;28;20256;-82
2021/09/19 09:06:51;;;;;;;6.57;2.60;;;15.60;99.90;;;;;;5042367;28;20279;-81
2021/09/19 09:09:18;;;;;;;3.57;2.37;;;15.60;99.90;;;;;;5062018;28;20213;-81
2021/09/19 09:12:00;;;;;;;3.53;2.13;;;15.60;99.90;;;;;;5059759;28;20213;-80
2021/09/19 09:14:26;;;;;;;4.43;2.57;;;15.80;99.90;;;;;;5063561;28;20229;-82
2021/09/19 09:16:51;;;;;;;3.37;2.40;;;15.80;99.90;;;;;;5063938;28;20223;-81
2021/09/19 09:19:17;;;;;;;7.60;2.57;;;15.80;99.90;;;;;;5047948;28;20217;-81
2021/09/19 09:21:44;;;;;;;3.20;2.60;;;15.80;99.90;;;;;;5048534;28;20189;-81
2021/09/19 09:24:15;;;;;;;4.20;2.87;;;15.90;99.90;;;;;;5048919;28;20197;-82
2021/09/19 09:26:42;;;;;;;4.20;2.40;;;15.90;99.90;;;;;;5046745;28;20307;-85
2021/09/19 09:29:16;;;;;;;3.93;2.73;;;15.80;99.90;;;;;;5031445;28;20240;-82
2021/09/19 09:31:47;;;;;;;4.60;2.67;;;16.00;99.90;;;;;;5026048;28;20392;-82
2021/09/19 09:34:14;;;;;;;3.40;2.37;;;16.10;99.90;;;;;;5058052;28;20269;-81
2021/09/19 09:36:50;;;;;;;2.73;1.70;;;16.00;99.90;;;;;;5041372;28;20186;-80
2021/09/19 09:39:32;;;;;;;3.03;2.23;;;16.00;99.90;;;;;;5045695;28;20189;-82
2021/09/19 09:42:15;;;;;;;5.63;2.20;;;16.10;99.90;;;;;;5043603;28;20256;-80
2021/09/19 09:44:44;;;;;;;2.63;2.40;;;16.00;99.90;;;;;;5043562;28;20696;-81
2021/09/19 09:47:11;;;;;;;2.90;2.07;;;16.10;99.90;;;;;;5043676;28;20241;-82
2021/09/19 09:49:55;;;;;;;4.03;2.03;;;16.00;99.90;;;;;;5042670;28;20226;-84
2021/09/19 09:52:21;;;;;;;3.63;2.60;;;16.10;99.90;;;;;;5044407;28;20218;-80
2021/09/19 09:55:15;;;;;;;4.77;2.07;;;16.20;99.90;;;;;;5042077;28;20213;-83
2021/09/19 09:57:56;;;;;;;2.83;2.03;;;16.30;99.90;;;;;;5034277;28;20201;-85
2021/09/19 10:00:22;;;;;;;2.60;2.17;;;16.30;99.90;;;;;;5044061;28;20186;-85
2021/09/19 10:02:51;;;;;;;6.30;2.17;;;16.20;99.90;;;;;;5027581;28;20656;-82
2021/09/19 10:05:19;;;;;;;3.90;1.97;;;16.20;99.90;;;;;;5027843;28;20323;-81
2021/09/19 10:07:46;;;;;;;4.43;2.67;;;16.30;99.90;;;;;;5028746;28;20248;-82
2021/09/19 10:10:14;;;;;;;4.57;2.80;;;16.60;99.90;;;;;;5027250;28;20320;-84
2021/09/19 10:12:41;;;;;;;6.97;3.10;;;16.70;99.90;;;;;;5044577;28;20243;-82
2021/09/19 10:15:08;;;;;;;5.43;2.53;;;16.70;99.90;;;;;;5041313;28;20182;-83
2021/09/19 10:17:34;;;;;;;4.40;2.33;;;16.90;99.90;;;;;;5042742;28;20213;-82
2021/09/19 10:20:09;;;;;;;2.90;1.83;;;17.00;99.90;;;;;;5040496;28;20221;-83
2021/09/19 10:22:55;;;;;;;2.80;2.00;;;16.90;99.90;;;;;;5040587;28;20248;-82
2021/09/19 10:25:33;;;;;;;4.27;2.30;;;16.80;99.90;;;;;;5041275;28;20247;-82
2021/09/19 10:28:20;;;;;;;6.30;2.43;;;16.90;99.90;;;;;;5041281;28;20726;-82
2021/09/19 10:31:13;;;;;;;3.93;1.87;;;16.90;99.90;;;;;;5039913;28;20196;-85
2021/09/19 10:33:43;;;;;;;3.90;2.30;;;16.90;99.90;;;;;;5039615;28;20201;-84
2021/09/19 10:36:11;;;;;;;6.33;2.60;;;16.90;99.90;;;;;;5043832;28;20240;-82
2021/09/19 10:38:40;;;;;;;5.33;3.17;;;17.00;99.90;;;;;;5040306;28;20221;-83
2021/09/19 10:41:22;;;;;;;2.07;1.50;;;16.80;99.90;;;;;;5043085;28;20305;-80
2021/09/19 10:43:54;;;;;;;3.70;2.40;;;16.80;99.90;;;;;;5042877;28;20616;-82
2021/09/19 10:46:38;;;;;;;2.77;2.17;;;17.00;99.90;;;;;;5046674;28;20240;-83
2021/09/19 10:49:18;;;;;;;4.27;2.80;;;17.80;99.90;;;;;;5046108;28;20320;-81
2021/09/19 10:52:02;;;;;;;5.50;2.77;;;18.10;99.90;;;;;;5044937;28;20189;-83
2021/09/19 10:54:48;;;;;;;3.30;1.90;;;18.60;99.90;;;;;;5046675;28;20734;-84
2021/09/19 10:57:29;;;;;;;4.10;2.53;;;18.90;99.90;;;;;;5049251;28;20698;-83
2021/09/19 11:00:15;;;;;;;3.00;2.07;;;19.30;99.90;;;;;;5049430;28;20590;-86
2021/09/19 11:02:42;;;;;;;5.53;3.17;;;19.70;99.90;;;;;;5046812;28;20247;-86
2021/09/19 11:05:29;;;;;;;3.07;2.00;;;19.40;99.90;;;;;;5028365;28;20217;-82
2021/09/19 11:08:24;;;;;;;4.27;2.93;;;18.90;99.90;;;;;;5058509;28;20523;-86
2021/09/19 11:10:50;;;;;;;3.67;1.93;;;19.00;99.90;;;;;;5032418;28;20223;-85
2021/09/19 11:13:25;;;;;;;2.87;2.27;;;18.90;99.90;;;;;;5040990;28;20225;-85
2021/09/19 11:16:05;;;;;;;3.03;2.40;;;18.70;99.90;;;;;;5039136;28;20190;-83
2021/09/19 11:18:51;;;;;;;3.07;2.10;;;18.80;99.90;;;;;;5040815;28;20304;-83
2021/09/19 11:21:30;;;;;;;3.60;2.20;;;19.00;99.90;;;;;;5040926;28;20220;-85
2021/09/19 11:24:08;;;;;;;3.93;2.53;;;18.70;99.90;;;;;;5039610;28;20647;-83
2021/09/19 11:26:43;;;;;;;3.63;2.37;;;18.80;99.90;;;;;;5042566;28;20210;-83
2021/09/19 11:29:15;;;;;;;4.07;1.90;;;19.10;99.90;;;;;;5042849;28;20225;-83
2021/09/19 11:31:42;;;;;;;4.53;2.40;;;19.30;99.90;;;;;;5043185;28;20213;-81
2021/09/19 11:34:11;;;;;;;5.57;2.53;;;19.40;99.90;;;;;;5044195;28;20225;-80
2021/09/19 11:36:49;;;;;;;3.17;2.43;;;19.30;99.90;;;;;;5045672;28;20191;-86
2021/09/19 11:39:16;;;;;;;3.50;2.20;;;19.10;99.90;;;;;;5046240;28;20308;-84
2021/09/19 11:41:44;;;;;;;2.80;2.23;;;19.10;99.90;;;;;;5048751;28;20206;-85
2021/09/19 11:44:12;;;;;;;2.67;2.10;;;19.30;99.90;;;;;;5056598;28;20224;-82
2021/09/19 11:46:50;;;;;;;4.90;2.70;;;19.20;99.90;;;;;;5058440;28;20296;-81
2021/09/19 11:49:18;;;;;;;4.97;2.43;;;19.30;99.90;;;;;;5071077;28;20262;-84
2021/09/19 11:51:45;;;;;;;2.63;2.23;;;19.40;99.90;;;;;;5069651;28;20239;-87
2021/09/19 11:54:16;;;;;;;3.63;2.40;;;19.20;99.90;;;;;;5072017;28;20280;-83
2021/09/19 11:56:47;;;;;;;3.57;2.73;;;19.20;99.90;;;;;;5062090;28;20270;-81
2021/09/19 11:59:15;;;;;;;3.00;1.90;;;19.20;99.90;;;;;;5061458;28;20686;-80
2021/09/19 12:01:41;;;;;;;3.73;1.90;;;19.00;99.90;;;;;;5060716;28;20209;-79
2021/09/19 12:04:09;;;;;;;4.37;2.23;;;19.20;99.90;;;;;;5060070;28;20224;-80
2021/09/19 12:06:36;;;;;;;3.00;2.03;;;19.30;99.90;;;;;;5077162;28;20298;-79
2021/09/19 12:09:01;;;;;;;2.97;2.23;;;19.00;99.90;;;;;;5062148;28;20217;-82
2021/09/19 12:11:41;;;;;;;4.97;2.23;;;18.90;99.90;;;;;;5062947;28;21179;-82
2021/09/19 12:14:17;;;;;;;5.97;2.37;;;18.80;99.90;;;;;;5061286;28;20307;-82
2021/09/19 12:16:55;;;;;;;4.63;2.20;;;19.00;99.90;;;;;;5062003;28;20211;-87
2021/09/19 12:19:21;;;;;;;2.13;1.90;;;19.30;99.90;;;;;;5062021;28;20282;-84
2021/09/19 12:22:00;;;;;;;3.43;1.90;;;19.30;99.90;;;;;;5060222;28;20189;-83
2021/09/19 12:24:28;;;;;;;4.47;1.60;;;19.20;99.90;;;;;;5062391;28;20173;-86
2021/09/19 12:27:08;;;;;;;3.83;1.93;;;19.10;99.90;;;;;;5060792;28;20213;-81
2021/09/19 12:29:34;;;;;;;2.23;2.00;;;19.30;99.90;;;;;;5062036;28;20232;-82
2021/09/19 12:32:03;;;;;;;2.70;2.13;;;19.20;99.90;;;;;;5045562;28;20991;-81
2021/09/19 12:34:29;;;;;;;2.60;1.80;;;19.10;99.90;;;;;;5064274;28;20556;-83
2021/09/19 12:36:56;;;;;;;2.77;1.70;;;19.10;99.90;;;;;;5067322;28;20663;-81
2021/09/19 12:39:28;;;;;;;2.63;1.67;;;19.40;99.90;;;;;;5064985;28;20203;-81
2021/09/19 12:41:58;;;;;;;3.77;2.10;;;19.10;99.90;;;;;;5066052;28;20255;-81
2021/09/19 12:44:27;;;;;;;4.93;1.67;;;19.10;99.90;;;;;;5065714;28;20260;-80
2021/09/19 12:46:57;;;;;;;4.47;1.77;;;19.10;99.90;;;;;;5066009;28;20298;-82
2021/09/19 12:49:29;;;;;;;1.80;1.53;;;19.20;99.90;;;;;;5065892;28;20276;-82
2021/09/19 12:52:05;;;;;;;1.60;1.30;;;19.10;99.90;;;;;;5066388;28;20852;-82
2021/09/19 12:54:32;;;;;;;2.37;1.73;;;19.00;99.90;;;;;;5066065;28;20264;-83
2021/09/19 12:56:58;;;;;;;2.47;1.30;;;19.10;99.90;;;;;;5082964;28;20244;-83